sensor_id;sensor_type;location;lat;lon;timestamp;P1;durP1;ratioP1;P2;durP2;ratioP2
52322;SDS011;38263;52.920;6.238;2022-09-23T00:01:44;13.02;;;10.73;;
52322;SDS011;38263;52.920;6.238;2022-09-23T00:04:10;15.68;;;10.82;;
52322;SDS011;38263;52.920;6.238;2022-09-23T00:06:36;11.88;;;10.50;;
52322;SDS011;38263;52.920;6.238;2022-09-23T00:09:03;13.27;;;10.88;;
52322;SDS011;38263;52.920;6.238;2022-09-23T00:11:29;13.57;;;10.25;;
52322;SDS011;38263;52.920;6.238;2022-09-23T00:13:56;12.75;;;10.57;;
52322;SDS011;38263;52.920;6.238;2022-09-23T00:16:24;17.35;;;11.90;;
52322;SDS011;38263;52.920;6.238;2022-09-23T00:18:52;14.65;;;11.45;;
52322;SDS011;38263;52.920;6.238;2022-09-23T00:21:19;13.93;;;10.98;;
52322;SDS011;38263;52.920;6.238;2022-09-23T00:23:45;15.30;;;12.18;;
52322;SDS011;38263;52.920;6.238;2022-09-23T00:26:12;13.80;;;12.30;;
52322;SDS011;38263;52.920;6.238;2022-09-23T00:28:40;14.52;;;11.82;;
52322;SDS011;38263;52.920;6.238;2022-09-23T00:31:10;15.20;;;11.90;;
52322;SDS011;38263;52.920;6.238;2022-09-23T00:33:41;14.65;;;11.55;;
52322;SDS011;38263;52.920;6.238;2022-09-23T00:36:09;14.40;;;11.75;;
52322;SDS011;38263;52.920;6.238;2022-09-23T00:38:36;15.18;;;11.70;;
52322;SDS011;38263;52.920;6.238;2022-09-23T00:41:02;17.13;;;12.60;;
52322;SDS011;38263;52.920;6.238;2022-09-23T00:43:35;14.73;;;12.10;;
52322;SDS011;38263;52.920;6.238;2022-09-23T00:46:01;15.50;;;11.38;;
52322;SDS011;38263;52.920;6.238;2022-09-23T00:48:26;16.25;;;11.50;;
52322;SDS011;38263;52.920;6.238;2022-09-23T00:50:52;15.82;;;11.68;;
52322;SDS011;38263;52.920;6.238;2022-09-23T00:53:19;17.23;;;13.05;;
52322;SDS011;38263;52.920;6.238;2022-09-23T00:55:49;13.82;;;11.57;;
52322;SDS011;38263;52.920;6.238;2022-09-23T00:58:19;13.27;;;11.73;;
52322;SDS011;38263;52.920;6.238;2022-09-23T01:00:48;14.20;;;11.73;;
52322;SDS011;38263;52.920;6.238;2022-09-23T01:03:13;12.82;;;10.70;;
52322;SDS011;38263;52.920;6.238;2022-09-23T01:05:39;14.73;;;11.73;;
52322;SDS011;38263;52.920;6.238;2022-09-23T01:08:06;16.77;;;12.48;;
52322;SDS011;38263;52.920;6.238;2022-09-23T01:16:12;18.25;;;12.43;;
52322;SDS011;38263;52.920;6.238;2022-09-23T01:31:53;16.30;;;12.57;;
52322;SDS011;38263;52.920;6.238;2022-09-23T01:34:22;18.23;;;12.50;;
52322;SDS011;38263;52.920;6.238;2022-09-23T01:37:05;15.55;;;12.70;;
52322;SDS011;38263;52.920;6.238;2022-09-23T01:39:40;15.55;;;12.43;;
52322;SDS011;38263;52.920;6.238;2022-09-23T01:42:21;16.77;;;13.05;;
52322;SDS011;38263;52.920;6.238;2022-09-23T01:44:55;16.17;;;12.65;;
52322;SDS011;38263;52.920;6.238;2022-09-23T01:47:30;16.75;;;13.68;;
52322;SDS011;38263;52.920;6.238;2022-09-23T01:50:04;15.75;;;12.95;;
52322;SDS011;38263;52.920;6.238;2022-09-23T01:52:52;13.60;;;11.73;;
52322;SDS011;38263;52.920;6.238;2022-09-23T01:55:23;19.70;;;13.50;;
52322;SDS011;38263;52.920;6.238;2022-09-23T01:57:55;16.77;;;13.00;;
52322;SDS011;38263;52.920;6.238;2022-09-23T02:00:32;16.70;;;12.15;;
52322;SDS011;38263;52.920;6.238;2022-09-23T02:03:04;18.33;;;13.45;;
52322;SDS011;38263;52.920;6.238;2022-09-23T02:06:00;17.37;;;12.70;;
52322;SDS011;38263;52.920;6.238;2022-09-23T02:08:28;16.27;;;11.95;;
52322;SDS011;38263;52.920;6.238;2022-09-23T02:11:00;20.52;;;14.15;;
52322;SDS011;38263;52.920;6.238;2022-09-23T02:13:46;18.10;;;13.20;;
52322;SDS011;38263;52.920;6.238;2022-09-23T02:16:24;16.48;;;12.95;;
52322;SDS011;38263;52.920;6.238;2022-09-23T02:18:54;15.70;;;12.63;;
52322;SDS011;38263;52.920;6.238;2022-09-23T02:21:35;18.63;;;13.25;;
52322;SDS011;38263;52.920;6.238;2022-09-23T02:31:55;15.45;;;12.02;;
52322;SDS011;38263;52.920;6.238;2022-09-23T02:39:44;15.50;;;12.07;;
52322;SDS011;38263;52.920;6.238;2022-09-23T02:45:14;16.55;;;12.55;;
52322;SDS011;38263;52.920;6.238;2022-09-23T02:47:41;18.20;;;13.50;;
52322;SDS011;38263;52.920;6.238;2022-09-23T02:50:09;18.45;;;14.07;;
52322;SDS011;38263;52.920;6.238;2022-09-23T02:52:35;18.17;;;13.90;;
52322;SDS011;38263;52.920;6.238;2022-09-23T02:55:03;17.52;;;13.20;;
52322;SDS011;38263;52.920;6.238;2022-09-23T02:57:30;18.13;;;13.57;;
52322;SDS011;38263;52.920;6.238;2022-09-23T02:59:56;19.77;;;14.20;;
52322;SDS011;38263;52.920;6.238;2022-09-23T03:02:35;19.77;;;14.27;;
52322;SDS011;38263;52.920;6.238;2022-09-23T03:16:11;16.42;;;13.88;;
52322;SDS011;38263;52.920;6.238;2022-09-23T03:24:20;16.88;;;13.68;;
52322;SDS011;38263;52.920;6.238;2022-09-23T03:26:48;17.75;;;13.88;;
52322;SDS011;38263;52.920;6.238;2022-09-23T03:29:15;16.33;;;14.32;;
52322;SDS011;38263;52.920;6.238;2022-09-23T03:31:44;16.55;;;13.95;;
52322;SDS011;38263;52.920;6.238;2022-09-23T03:34:12;21.25;;;14.45;;
52322;SDS011;38263;52.920;6.238;2022-09-23T03:36:43;17.50;;;14.40;;
52322;SDS011;38263;52.920;6.238;2022-09-23T03:42:14;17.88;;;15.30;;
52322;SDS011;38263;52.920;6.238;2022-09-23T03:44:45;18.50;;;14.18;;
52322;SDS011;38263;52.920;6.238;2022-09-23T03:47:12;18.05;;;14.50;;
52322;SDS011;38263;52.920;6.238;2022-09-23T03:49:39;15.68;;;14.00;;
52322;SDS011;38263;52.920;6.238;2022-09-23T03:52:10;20.80;;;14.57;;
52322;SDS011;38263;52.920;6.238;2022-09-23T03:54:36;19.92;;;15.13;;
52322;SDS011;38263;52.920;6.238;2022-09-23T03:57:02;23.85;;;15.30;;
52322;SDS011;38263;52.920;6.238;2022-09-23T03:59:28;21.05;;;14.75;;
52322;SDS011;38263;52.920;6.238;2022-09-23T04:01:57;19.60;;;14.40;;
52322;SDS011;38263;52.920;6.238;2022-09-23T04:04:23;19.67;;;14.07;;
52322;SDS011;38263;52.920;6.238;2022-09-23T04:06:50;16.08;;;14.38;;
52322;SDS011;38263;52.920;6.238;2022-09-23T04:09:16;19.02;;;14.88;;
52322;SDS011;38263;52.920;6.238;2022-09-23T04:11:41;19.65;;;15.10;;
52322;SDS011;38263;52.920;6.238;2022-09-23T04:14:07;18.73;;;14.80;;
52322;SDS011;38263;52.920;6.238;2022-09-23T04:16:33;23.02;;;16.13;;
52322;SDS011;38263;52.920;6.238;2022-09-23T04:18:58;19.88;;;14.98;;
52322;SDS011;38263;52.920;6.238;2022-09-23T04:21:24;17.75;;;15.25;;
52322;SDS011;38263;52.920;6.238;2022-09-23T04:23:50;19.60;;;14.35;;
52322;SDS011;38263;52.920;6.238;2022-09-23T04:26:16;21.13;;;15.02;;
52322;SDS011;38263;52.920;6.238;2022-09-23T04:28:43;21.80;;;15.05;;
52322;SDS011;38263;52.920;6.238;2022-09-23T04:31:08;18.88;;;14.80;;
52322;SDS011;38263;52.920;6.238;2022-09-23T04:33:34;17.92;;;14.82;;
52322;SDS011;38263;52.920;6.238;2022-09-23T04:35:59;16.95;;;14.95;;
52322;SDS011;38263;52.920;6.238;2022-09-23T04:38:25;22.77;;;16.50;;
52322;SDS011;38263;52.920;6.238;2022-09-23T04:40:51;20.90;;;15.20;;
52322;SDS011;38263;52.920;6.238;2022-09-23T04:43:18;21.75;;;16.40;;
52322;SDS011;38263;52.920;6.238;2022-09-23T04:45:55;18.90;;;16.25;;
52322;SDS011;38263;52.920;6.238;2022-09-23T04:50:47;22.75;;;16.02;;
52322;SDS011;38263;52.920;6.238;2022-09-23T04:53:13;17.73;;;15.38;;
52322;SDS011;38263;52.920;6.238;2022-09-23T04:55:40;20.45;;;16.35;;
52322;SDS011;38263;52.920;6.238;2022-09-23T04:58:07;18.90;;;15.07;;
52322;SDS011;38263;52.920;6.238;2022-09-23T05:00:34;18.50;;;16.52;;
52322;SDS011;38263;52.920;6.238;2022-09-23T05:03:00;19.30;;;16.60;;
52322;SDS011;38263;52.920;6.238;2022-09-23T05:05:26;20.55;;;16.05;;
52322;SDS011;38263;52.920;6.238;2022-09-23T05:07:53;23.60;;;16.55;;
52322;SDS011;38263;52.920;6.238;2022-09-23T05:10:19;19.63;;;16.20;;
52322;SDS011;38263;52.920;6.238;2022-09-23T05:12:45;20.05;;;17.48;;
52322;SDS011;38263;52.920;6.238;2022-09-23T05:15:11;19.83;;;17.13;;
52322;SDS011;38263;52.920;6.238;2022-09-23T05:17:39;20.33;;;16.95;;
52322;SDS011;38263;52.920;6.238;2022-09-23T05:20:04;20.88;;;15.88;;
52322;SDS011;38263;52.920;6.238;2022-09-23T05:22:30;22.83;;;17.13;;
52322;SDS011;38263;52.920;6.238;2022-09-23T05:24:56;21.20;;;16.10;;
52322;SDS011;38263;52.920;6.238;2022-09-23T05:27:23;26.10;;;17.58;;
52322;SDS011;38263;52.920;6.238;2022-09-23T05:29:49;23.52;;;17.08;;
52322;SDS011;38263;52.920;6.238;2022-09-23T05:32:17;23.90;;;16.55;;
52322;SDS011;38263;52.920;6.238;2022-09-23T05:34:42;20.30;;;16.27;;
52322;SDS011;38263;52.920;6.238;2022-09-23T05:37:08;22.40;;;17.52;;
52322;SDS011;38263;52.920;6.238;2022-09-23T05:39:34;17.35;;;15.25;;
52322;SDS011;38263;52.920;6.238;2022-09-23T05:42:00;19.85;;;16.95;;
52322;SDS011;38263;52.920;6.238;2022-09-23T05:44:26;20.42;;;16.38;;
52322;SDS011;38263;52.920;6.238;2022-09-23T05:46:51;18.35;;;15.75;;
52322;SDS011;38263;52.920;6.238;2022-09-23T05:49:17;19.70;;;15.60;;
52322;SDS011;38263;52.920;6.238;2022-09-23T05:51:42;20.63;;;16.67;;
52322;SDS011;38263;52.920;6.238;2022-09-23T05:54:08;19.58;;;16.35;;
52322;SDS011;38263;52.920;6.238;2022-09-23T05:56:34;22.48;;;16.48;;
52322;SDS011;38263;52.920;6.238;2022-09-23T05:59:01;21.83;;;15.88;;
52322;SDS011;38263;52.920;6.238;2022-09-23T06:01:30;20.55;;;15.70;;
52322;SDS011;38263;52.920;6.238;2022-09-23T06:03:57;18.85;;;15.55;;
52322;SDS011;38263;52.920;6.238;2022-09-23T06:06:27;20.60;;;15.60;;
52322;SDS011;38263;52.920;6.238;2022-09-23T06:08:58;20.95;;;16.20;;
52322;SDS011;38263;52.920;6.238;2022-09-23T06:11:24;19.83;;;16.02;;
52322;SDS011;38263;52.920;6.238;2022-09-23T06:13:54;17.90;;;16.00;;
52322;SDS011;38263;52.920;6.238;2022-09-23T06:16:21;18.83;;;15.38;;
52322;SDS011;38263;52.920;6.238;2022-09-23T06:18:47;16.98;;;14.80;;
52322;SDS011;38263;52.920;6.238;2022-09-23T06:21:13;17.48;;;15.40;;
52322;SDS011;38263;52.920;6.238;2022-09-23T06:23:40;16.90;;;14.15;;
52322;SDS011;38263;52.920;6.238;2022-09-23T06:26:07;17.77;;;14.27;;
52322;SDS011;38263;52.920;6.238;2022-09-23T06:28:35;21.17;;;15.20;;
52322;SDS011;38263;52.920;6.238;2022-09-23T06:31:02;19.23;;;15.57;;
52322;SDS011;38263;52.920;6.238;2022-09-23T06:33:29;17.45;;;15.00;;
52322;SDS011;38263;52.920;6.238;2022-09-23T06:35:55;18.15;;;15.10;;
52322;SDS011;38263;52.920;6.238;2022-09-23T06:38:22;20.67;;;15.40;;
52322;SDS011;38263;52.920;6.238;2022-09-23T06:40:49;17.75;;;15.35;;
52322;SDS011;38263;52.920;6.238;2022-09-23T06:43:15;18.98;;;13.70;;
52322;SDS011;38263;52.920;6.238;2022-09-23T06:45:41;21.02;;;16.33;;
52322;SDS011;38263;52.920;6.238;2022-09-23T06:48:07;19.58;;;15.45;;
52322;SDS011;38263;52.920;6.238;2022-09-23T06:50:34;19.80;;;15.50;;
52322;SDS011;38263;52.920;6.238;2022-09-23T06:53:00;17.48;;;14.80;;
52322;SDS011;38263;52.920;6.238;2022-09-23T06:55:27;18.52;;;15.00;;
52322;SDS011;38263;52.920;6.238;2022-09-23T06:57:53;21.20;;;14.45;;
52322;SDS011;38263;52.920;6.238;2022-09-23T07:00:19;18.85;;;15.02;;
52322;SDS011;38263;52.920;6.238;2022-09-23T07:02:45;21.58;;;15.25;;
52322;SDS011;38263;52.920;6.238;2022-09-23T07:05:11;18.85;;;14.60;;
52322;SDS011;38263;52.920;6.238;2022-09-23T07:07:37;16.38;;;14.05;;
52322;SDS011;38263;52.920;6.238;2022-09-23T07:10:03;17.17;;;14.77;;
52322;SDS011;38263;52.920;6.238;2022-09-23T07:12:30;21.83;;;14.65;;
52322;SDS011;38263;52.920;6.238;2022-09-23T07:14:56;20.15;;;15.10;;
52322;SDS011;38263;52.920;6.238;2022-09-23T07:17:22;16.77;;;14.50;;
52322;SDS011;38263;52.920;6.238;2022-09-23T07:19:48;17.60;;;13.52;;
52322;SDS011;38263;52.920;6.238;2022-09-23T07:22:15;17.60;;;14.27;;
52322;SDS011;38263;52.920;6.238;2022-09-23T07:24:41;18.52;;;14.88;;
52322;SDS011;38263;52.920;6.238;2022-09-23T07:27:07;17.60;;;13.88;;
52322;SDS011;38263;52.920;6.238;2022-09-23T07:29:33;17.20;;;14.82;;
52322;SDS011;38263;52.920;6.238;2022-09-23T07:31:59;20.80;;;14.88;;
52322;SDS011;38263;52.920;6.238;2022-09-23T07:34:25;20.40;;;15.10;;
52322;SDS011;38263;52.920;6.238;2022-09-23T07:36:52;20.55;;;15.68;;
52322;SDS011;38263;52.920;6.238;2022-09-23T07:39:18;17.23;;;14.35;;
52322;SDS011;38263;52.920;6.238;2022-09-23T07:41:43;15.98;;;12.77;;
52322;SDS011;38263;52.920;6.238;2022-09-23T07:44:09;18.55;;;13.20;;
52322;SDS011;38263;52.920;6.238;2022-09-23T07:46:36;17.85;;;14.38;;
52322;SDS011;38263;52.920;6.238;2022-09-23T07:49:02;17.23;;;13.93;;
52322;SDS011;38263;52.920;6.238;2022-09-23T07:51:33;18.17;;;14.77;;
52322;SDS011;38263;52.920;6.238;2022-09-23T07:54:00;15.20;;;13.25;;
52322;SDS011;38263;52.920;6.238;2022-09-23T07:56:27;16.02;;;12.75;;
52322;SDS011;38263;52.920;6.238;2022-09-23T07:58:53;15.02;;;12.60;;
52322;SDS011;38263;52.920;6.238;2022-09-23T08:01:32;15.40;;;12.98;;
52322;SDS011;38263;52.920;6.238;2022-09-23T08:04:01;18.20;;;13.32;;
52322;SDS011;38263;52.920;6.238;2022-09-23T08:06:29;14.93;;;12.50;;
52322;SDS011;38263;52.920;6.238;2022-09-23T08:08:59;17.33;;;12.93;;
52322;SDS011;38263;52.920;6.238;2022-09-23T08:11:25;17.98;;;13.52;;
52322;SDS011;38263;52.920;6.238;2022-09-23T08:13:52;18.60;;;13.35;;
52322;SDS011;38263;52.920;6.238;2022-09-23T08:16:18;17.25;;;13.55;;
52322;SDS011;38263;52.920;6.238;2022-09-23T08:18:44;17.58;;;13.10;;
52322;SDS011;38263;52.920;6.238;2022-09-23T08:21:10;15.57;;;12.85;;
52322;SDS011;38263;52.920;6.238;2022-09-23T08:23:36;18.65;;;13.05;;
52322;SDS011;38263;52.920;6.238;2022-09-23T08:26:03;20.00;;;13.20;;
52322;SDS011;38263;52.920;6.238;2022-09-23T08:28:30;18.05;;;14.48;;
52322;SDS011;38263;52.920;6.238;2022-09-23T08:30:57;18.05;;;14.48;;
52322;SDS011;38263;52.920;6.238;2022-09-23T08:33:23;15.25;;;12.77;;
52322;SDS011;38263;52.920;6.238;2022-09-23T08:35:49;13.25;;;11.88;;
52322;SDS011;38263;52.920;6.238;2022-09-23T08:38:16;15.68;;;12.80;;
52322;SDS011;38263;52.920;6.238;2022-09-23T08:40:42;14.38;;;12.43;;
52322;SDS011;38263;52.920;6.238;2022-09-23T08:43:33;17.02;;;12.82;;
52322;SDS011;38263;52.920;6.238;2022-09-23T08:46:07;15.10;;;12.90;;
52322;SDS011;38263;52.920;6.238;2022-09-23T08:48:35;13.75;;;11.38;;
52322;SDS011;38263;52.920;6.238;2022-09-23T08:51:10;16.20;;;12.05;;
52322;SDS011;38263;52.920;6.238;2022-09-23T08:53:38;15.32;;;11.68;;
52322;SDS011;38263;52.920;6.238;2022-09-23T08:56:15;14.07;;;11.45;;
52322;SDS011;38263;52.920;6.238;2022-09-23T08:58:54;16.15;;;11.90;;
52322;SDS011;38263;52.920;6.238;2022-09-23T09:01:33;12.73;;;10.43;;
52322;SDS011;38263;52.920;6.238;2022-09-23T09:06:59;12.30;;;10.10;;
52322;SDS011;38263;52.920;6.238;2022-09-23T09:09:42;15.68;;;11.15;;
52322;SDS011;38263;52.920;6.238;2022-09-23T09:12:14;13.07;;;10.15;;
52322;SDS011;38263;52.920;6.238;2022-09-23T09:17:38;14.23;;;9.75;;
52322;SDS011;38263;52.920;6.238;2022-09-23T09:20:17;12.10;;;9.77;;
52322;SDS011;38263;52.920;6.238;2022-09-23T09:23:03;15.50;;;11.27;;
52322;SDS011;38263;52.920;6.238;2022-09-23T09:25:42;13.15;;;9.10;;
52322;SDS011;38263;52.920;6.238;2022-09-23T09:31:40;13.02;;;10.15;;
52322;SDS011;38263;52.920;6.238;2022-09-23T09:33:53;17.17;;;10.48;;
52322;SDS011;38263;52.920;6.238;2022-09-23T09:36:36;13.80;;;9.90;;
52322;SDS011;38263;52.920;6.238;2022-09-23T09:39:12;14.07;;;9.38;;
52322;SDS011;38263;52.920;6.238;2022-09-23T09:41:49;12.63;;;10.13;;
52322;SDS011;38263;52.920;6.238;2022-09-23T09:44:20;11.90;;;10.30;;
52322;SDS011;38263;52.920;6.238;2022-09-23T09:49:39;13.07;;;10.02;;
52322;SDS011;38263;52.920;6.238;2022-09-23T09:52:23;15.35;;;11.13;;
52322;SDS011;38263;52.920;6.238;2022-09-23T09:54:51;14.65;;;10.40;;
52322;SDS011;38263;52.920;6.238;2022-09-23T09:57:18;15.73;;;11.68;;
52322;SDS011;38263;52.920;6.238;2022-09-23T09:59:47;12.15;;;9.90;;
52322;SDS011;38263;52.920;6.238;2022-09-23T10:04:45;13.98;;;10.13;;
52322;SDS011;38263;52.920;6.238;2022-09-23T10:07:28;14.73;;;11.05;;
52322;SDS011;38263;52.920;6.238;2022-09-23T10:09:56;16.77;;;11.57;;
52322;SDS011;38263;52.920;6.238;2022-09-23T10:12:22;13.23;;;10.30;;
52322;SDS011;38263;52.920;6.238;2022-09-23T10:14:50;14.32;;;11.85;;
52322;SDS011;38263;52.920;6.238;2022-09-23T10:17:20;14.73;;;11.05;;
52322;SDS011;38263;52.920;6.238;2022-09-23T10:19:58;13.65;;;10.23;;
52322;SDS011;38263;52.920;6.238;2022-09-23T10:22:27;15.27;;;10.50;;
52322;SDS011;38263;52.920;6.238;2022-09-23T10:24:58;11.57;;;10.35;;
52322;SDS011;38263;52.920;6.238;2022-09-23T10:27:31;16.45;;;10.90;;
52322;SDS011;38263;52.920;6.238;2022-09-23T10:30:21;13.82;;;10.60;;
52322;SDS011;38263;52.920;6.238;2022-09-23T10:32:47;18.27;;;10.27;;
52322;SDS011;38263;52.920;6.238;2022-09-23T10:35:15;18.33;;;10.57;;
52322;SDS011;38263;52.920;6.238;2022-09-23T10:37:55;16.35;;;10.45;;
52322;SDS011;38263;52.920;6.238;2022-09-23T10:49:18;18.23;;;11.38;;
52322;SDS011;38263;52.920;6.238;2022-09-23T10:56:57;13.90;;;9.93;;
52322;SDS011;38263;52.920;6.238;2022-09-23T10:59:51;13.63;;;9.00;;
52322;SDS011;38263;52.920;6.238;2022-09-23T11:08:11;13.40;;;10.43;;
52322;SDS011;38263;52.920;6.238;2022-09-23T11:10:55;12.70;;;9.93;;
52322;SDS011;38263;52.920;6.238;2022-09-23T11:22:31;13.20;;;10.27;;
52322;SDS011;38263;52.920;6.238;2022-09-23T11:35:57;13.77;;;12.00;;
52322;SDS011;38263;52.920;6.238;2022-09-23T11:38:34;13.48;;;10.68;;
52322;SDS011;38263;52.920;6.238;2022-09-23T11:41:18;28.15;;;12.48;;
52322;SDS011;38263;52.920;6.238;2022-09-23T11:43:55;16.23;;;11.00;;
52322;SDS011;38263;52.920;6.238;2022-09-23T11:46:30;17.52;;;11.73;;
52322;SDS011;38263;52.920;6.238;2022-09-23T11:49:09;13.32;;;11.60;;
52322;SDS011;38263;52.920;6.238;2022-09-23T11:54:42;13.85;;;10.75;;
52322;SDS011;38263;52.920;6.238;2022-09-23T11:57:23;16.67;;;11.93;;
52322;SDS011;38263;52.920;6.238;2022-09-23T11:59:58;16.33;;;10.98;;
52322;SDS011;38263;52.920;6.238;2022-09-23T12:05:09;15.40;;;10.68;;
52322;SDS011;38263;52.920;6.238;2022-09-23T12:07:43;12.77;;;10.43;;
52322;SDS011;38263;52.920;6.238;2022-09-23T12:10:25;14.98;;;10.73;;
52322;SDS011;38263;52.920;6.238;2022-09-23T12:13:14;15.10;;;11.48;;
52322;SDS011;38263;52.920;6.238;2022-09-23T12:15:50;14.27;;;10.95;;
52322;SDS011;38263;52.920;6.238;2022-09-23T12:18:50;15.82;;;11.23;;
52322;SDS011;38263;52.920;6.238;2022-09-23T12:26:53;15.10;;;11.00;;
52322;SDS011;38263;52.920;6.238;2022-09-23T12:29:23;15.27;;;12.10;;
52322;SDS011;38263;52.920;6.238;2022-09-23T12:31:53;15.65;;;11.50;;
52322;SDS011;38263;52.920;6.238;2022-09-23T12:34:21;15.50;;;10.98;;
52322;SDS011;38263;52.920;6.238;2022-09-23T12:36:51;19.80;;;11.75;;
52322;SDS011;38263;52.920;6.238;2022-09-23T12:41:57;13.75;;;11.48;;
52322;SDS011;38263;52.920;6.238;2022-09-23T12:47:28;18.58;;;11.02;;
52322;SDS011;38263;52.920;6.238;2022-09-23T12:49:53;18.30;;;11.13;;
52322;SDS011;38263;52.920;6.238;2022-09-23T12:52:27;14.18;;;10.27;;
52322;SDS011;38263;52.920;6.238;2022-09-23T12:57:48;15.85;;;11.07;;
52322;SDS011;38263;52.920;6.238;2022-09-23T13:08:24;13.95;;;10.98;;
52322;SDS011;38263;52.920;6.238;2022-09-23T13:10:56;15.60;;;11.07;;
52322;SDS011;38263;52.920;6.238;2022-09-23T13:13:26;15.02;;;11.48;;
52322;SDS011;38263;52.920;6.238;2022-09-23T13:16:07;16.75;;;11.60;;
52322;SDS011;38263;52.920;6.238;2022-09-23T13:26:37;18.30;;;11.65;;
52322;SDS011;38263;52.920;6.238;2022-09-23T13:29:13;14.65;;;11.93;;
52322;SDS011;38263;52.920;6.238;2022-09-23T13:31:44;17.02;;;10.88;;
52322;SDS011;38263;52.920;6.238;2022-09-23T13:34:11;14.35;;;11.55;;
52322;SDS011;38263;52.920;6.238;2022-09-23T13:36:43;12.98;;;10.70;;
52322;SDS011;38263;52.920;6.238;2022-09-23T13:39:26;18.58;;;12.25;;
52322;SDS011;38263;52.920;6.238;2022-09-23T13:42:00;22.33;;;13.05;;
52322;SDS011;38263;52.920;6.238;2022-09-23T13:44:28;16.85;;;13.23;;
52322;SDS011;38263;52.920;6.238;2022-09-23T13:46:56;16.13;;;12.10;;
52322;SDS011;38263;52.920;6.238;2022-09-23T13:49:24;15.52;;;12.02;;
52322;SDS011;38263;52.920;6.238;2022-09-23T13:51:53;21.42;;;12.80;;
52322;SDS011;38263;52.920;6.238;2022-09-23T13:56:58;18.77;;;13.68;;
52322;SDS011;38263;52.920;6.238;2022-09-23T14:02:05;13.98;;;11.18;;
52322;SDS011;38263;52.920;6.238;2022-09-23T14:04:34;14.32;;;11.38;;
52322;SDS011;38263;52.920;6.238;2022-09-23T14:07:00;14.55;;;10.45;;
52322;SDS011;38263;52.920;6.238;2022-09-23T14:09:35;16.55;;;12.45;;
52322;SDS011;38263;52.920;6.238;2022-09-23T14:12:30;15.18;;;11.57;;
52322;SDS011;38263;52.920;6.238;2022-09-23T14:14:56;16.50;;;13.50;;
52322;SDS011;38263;52.920;6.238;2022-09-23T14:17:22;17.02;;;13.05;;
52322;SDS011;38263;52.920;6.238;2022-09-23T14:19:47;16.70;;;12.30;;
52322;SDS011;38263;52.920;6.238;2022-09-23T14:22:25;16.65;;;12.13;;
52322;SDS011;38263;52.920;6.238;2022-09-23T14:24:51;18.08;;;12.05;;
52322;SDS011;38263;52.920;6.238;2022-09-23T14:27:23;15.60;;;12.13;;
52322;SDS011;38263;52.920;6.238;2022-09-23T14:29:54;18.38;;;13.07;;
52322;SDS011;38263;52.920;6.238;2022-09-23T14:32:21;17.27;;;13.15;;
52322;SDS011;38263;52.920;6.238;2022-09-23T14:40:23;14.93;;;11.63;;
52322;SDS011;38263;52.920;6.238;2022-09-23T14:42:56;18.85;;;13.15;;
52322;SDS011;38263;52.920;6.238;2022-09-23T14:45:29;20.65;;;12.88;;
52322;SDS011;38263;52.920;6.238;2022-09-23T14:48:01;20.35;;;13.18;;
52322;SDS011;38263;52.920;6.238;2022-09-23T14:50:34;20.70;;;12.07;;
52322;SDS011;38263;52.920;6.238;2022-09-23T14:53:01;20.38;;;12.35;;
52322;SDS011;38263;52.920;6.238;2022-09-23T14:55:51;18.00;;;12.05;;
52322;SDS011;38263;52.920;6.238;2022-09-23T14:58:22;18.58;;;12.73;;
52322;SDS011;38263;52.920;6.238;2022-09-23T15:03:19;20.27;;;12.27;;
52322;SDS011;38263;52.920;6.238;2022-09-23T15:05:48;15.50;;;12.52;;
52322;SDS011;38263;52.920;6.238;2022-09-23T15:08:17;16.35;;;11.55;;
52322;SDS011;38263;52.920;6.238;2022-09-23T15:10:47;16.10;;;11.13;;
52322;SDS011;38263;52.920;6.238;2022-09-23T15:13:15;18.27;;;11.10;;
52322;SDS011;38263;52.920;6.238;2022-09-23T15:15:46;14.27;;;11.20;;
52322;SDS011;38263;52.920;6.238;2022-09-23T15:18:22;18.00;;;11.20;;
52322;SDS011;38263;52.920;6.238;2022-09-23T15:20:51;14.93;;;9.95;;
52322;SDS011;38263;52.920;6.238;2022-09-23T15:23:34;12.95;;;10.13;;
52322;SDS011;38263;52.920;6.238;2022-09-23T15:26:10;15.15;;;10.98;;
52322;SDS011;38263;52.920;6.238;2022-09-23T15:28:38;15.02;;;11.35;;
52322;SDS011;38263;52.920;6.238;2022-09-23T15:31:03;18.77;;;11.55;;
52322;SDS011;38263;52.920;6.238;2022-09-23T15:33:30;13.50;;;10.77;;
52322;SDS011;38263;52.920;6.238;2022-09-23T15:35:56;13.25;;;10.52;;
52322;SDS011;38263;52.920;6.238;2022-09-23T15:38:22;18.38;;;11.00;;
52322;SDS011;38263;52.920;6.238;2022-09-23T15:40:48;16.00;;;10.45;;
52322;SDS011;38263;52.920;6.238;2022-09-23T15:43:18;14.57;;;11.20;;
52322;SDS011;38263;52.920;6.238;2022-09-23T15:45:56;17.58;;;10.57;;
52322;SDS011;38263;52.920;6.238;2022-09-23T15:48:26;13.93;;;9.82;;
52322;SDS011;38263;52.920;6.238;2022-09-23T15:50:56;14.60;;;9.95;;
52322;SDS011;38263;52.920;6.238;2022-09-23T15:53:26;14.48;;;9.82;;
52322;SDS011;38263;52.920;6.238;2022-09-23T15:55:52;12.30;;;10.07;;
52322;SDS011;38263;52.920;6.238;2022-09-23T15:58:18;13.38;;;10.35;;
52322;SDS011;38263;52.920;6.238;2022-09-23T16:00:48;16.10;;;10.55;;
52322;SDS011;38263;52.920;6.238;2022-09-23T16:03:16;15.38;;;11.52;;
52322;SDS011;38263;52.920;6.238;2022-09-23T16:05:44;14.85;;;10.55;;
52322;SDS011;38263;52.920;6.238;2022-09-23T16:08:11;15.32;;;11.65;;
52322;SDS011;38263;52.920;6.238;2022-09-23T16:10:38;14.10;;;10.73;;
52322;SDS011;38263;52.920;6.238;2022-09-23T16:13:05;16.90;;;11.18;;
52322;SDS011;38263;52.920;6.238;2022-09-23T16:15:34;17.08;;;10.77;;
52322;SDS011;38263;52.920;6.238;2022-09-23T16:18:02;15.23;;;10.63;;
52322;SDS011;38263;52.920;6.238;2022-09-23T16:20:30;12.38;;;10.10;;
52322;SDS011;38263;52.920;6.238;2022-09-23T16:23:02;13.88;;;10.60;;
52322;SDS011;38263;52.920;6.238;2022-09-23T16:25:32;14.10;;;10.37;;
52322;SDS011;38263;52.920;6.238;2022-09-23T16:28:01;16.88;;;10.70;;
52322;SDS011;38263;52.920;6.238;2022-09-23T16:30:28;14.30;;;11.07;;
52322;SDS011;38263;52.920;6.238;2022-09-23T16:32:55;17.58;;;11.80;;
52322;SDS011;38263;52.920;6.238;2022-09-23T16:35:23;18.83;;;12.65;;
52322;SDS011;38263;52.920;6.238;2022-09-23T16:37:50;15.43;;;11.10;;
52322;SDS011;38263;52.920;6.238;2022-09-23T16:40:17;17.85;;;11.90;;
52322;SDS011;38263;52.920;6.238;2022-09-23T16:42:45;21.25;;;11.80;;
52322;SDS011;38263;52.920;6.238;2022-09-23T16:45:16;17.50;;;11.27;;
52322;SDS011;38263;52.920;6.238;2022-09-23T16:47:43;19.13;;;12.02;;
52322;SDS011;38263;52.920;6.238;2022-09-23T16:50:13;16.88;;;11.93;;
52322;SDS011;38263;52.920;6.238;2022-09-23T16:52:41;16.00;;;11.77;;
52322;SDS011;38263;52.920;6.238;2022-09-23T16:55:07;15.45;;;11.90;;
52322;SDS011;38263;52.920;6.238;2022-09-23T16:57:35;14.80;;;11.07;;
52322;SDS011;38263;52.920;6.238;2022-09-23T17:00:03;14.98;;;10.68;;
52322;SDS011;38263;52.920;6.238;2022-09-23T17:02:49;15.05;;;11.10;;
52322;SDS011;38263;52.920;6.238;2022-09-23T17:05:35;13.75;;;10.05;;
52322;SDS011;38263;52.920;6.238;2022-09-23T17:08:01;14.30;;;10.75;;
52322;SDS011;38263;52.920;6.238;2022-09-23T17:10:28;16.42;;;10.75;;
52322;SDS011;38263;52.920;6.238;2022-09-23T17:12:54;15.60;;;11.02;;
52322;SDS011;38263;52.920;6.238;2022-09-23T17:15:20;13.43;;;11.10;;
52322;SDS011;38263;52.920;6.238;2022-09-23T17:17:46;15.13;;;10.60;;